sensor_id;sensor_type;location;lat;lon;timestamp;pressure;altitude;pressure_sealevel;temperature;humidity
11912;BME280;6016;41.928;25.556;2024-01-27T00:01:07;99613.03;;;6.48;58.51
11912;BME280;6016;41.928;25.556;2024-01-27T00:03:34;99610.22;;;6.52;56.86
11912;BME280;6016;41.928;25.556;2024-01-27T00:06:01;99592.56;;;6.41;55.96
11912;BME280;6016;41.928;25.556;2024-01-27T00:08:29;99616.16;;;6.41;56.58
11912;BME280;6016;41.928;25.556;2024-01-27T00:10:56;99615.28;;;6.27;56.08
11912;BME280;6016;41.928;25.556;2024-01-27T00:13:23;99623.28;;;6.39;55.52
11912;BME280;6016;41.928;25.556;2024-01-27T00:15:51;99610.91;;;6.41;58.07
11912;BME280;6016;41.928;25.556;2024-01-27T00:18:20;99616.50;;;6.22;55.79
11912;BME280;6016;41.928;25.556;2024-01-27T00:20:47;99608.13;;;6.16;56.84
11912;BME280;6016;41.928;25.556;2024-01-27T00:23:14;99592.59;;;6.13;57.09
11912;BME280;6016;41.928;25.556;2024-01-27T00:25:42;99612.56;;;6.29;55.61
11912;BME280;6016;41.928;25.556;2024-01-27T00:28:09;99602.88;;;6.16;55.57
11912;BME280;6016;41.928;25.556;2024-01-27T00:30:36;99603.69;;;6.17;56.30
11912;BME280;6016;41.928;25.556;2024-01-27T00:33:04;99614.59;;;5.96;56.27
11912;BME280;6016;41.928;25.556;2024-01-27T00:35:31;99614.34;;;5.72;57.93
11912;BME280;6016;41.928;25.556;2024-01-27T00:37:58;99622.44;;;6.11;57.14
11912;BME280;6016;41.928;25.556;2024-01-27T00:40:25;99577.09;;;5.96;58.05
11912;BME280;6016;41.928;25.556;2024-01-27T00:42:53;99574.38;;;5.97;57.14
11912;BME280;6016;41.928;25.556;2024-01-27T00:45:20;99627.13;;;5.91;57.20
11912;BME280;6016;41.928;25.556;2024-01-27T00:47:48;99625.63;;;5.87;57.36
11912;BME280;6016;41.928;25.556;2024-01-27T00:50:15;99614.31;;;5.86;58.26
11912;BME280;6016;41.928;25.556;2024-01-27T00:52:42;99613.56;;;5.84;57.28
11912;BME280;6016;41.928;25.556;2024-01-27T00:55:09;99597.13;;;5.82;57.65
11912;BME280;6016;41.928;25.556;2024-01-27T00:57:37;99616.75;;;5.89;57.42
11912;BME280;6016;41.928;25.556;2024-01-27T01:00:07;99611.31;;;5.93;57.84
11912;BME280;6016;41.928;25.556;2024-01-27T01:02:35;99611.78;;;5.99;58.24
11912;BME280;6016;41.928;25.556;2024-01-27T01:05:02;99602.44;;;5.81;56.79
11912;BME280;6016;41.928;25.556;2024-01-27T01:07:29;99606.16;;;5.91;57.95
11912;BME280;6016;41.928;25.556;2024-01-27T01:09:57;99574.16;;;5.73;57.38
11912;BME280;6016;41.928;25.556;2024-01-27T01:12:24;99609.06;;;6.01;57.80
11912;BME280;6016;41.928;25.556;2024-01-27T01:14:51;99601.63;;;5.80;57.11
11912;BME280;6016;41.928;25.556;2024-01-27T01:17:21;99594.44;;;5.84;57.42
11912;BME280;6016;41.928;25.556;2024-01-27T01:19:48;99592.47;;;5.73;57.60
11912;BME280;6016;41.928;25.556;2024-01-27T01:22:15;99610.97;;;5.70;56.97
11912;BME280;6016;41.928;25.556;2024-01-27T01:24:42;99590.78;;;5.72;57.40
11912;BME280;6016;41.928;25.556;2024-01-27T01:27:09;99589.34;;;5.81;57.26
11912;BME280;6016;41.928;25.556;2024-01-27T01:29:36;99562.16;;;5.83;58.72
11912;BME280;6016;41.928;25.556;2024-01-27T01:32:04;99356.75;;;4.66;58.29
11912;BME280;6016;41.928;25.556;2024-01-27T01:34:32;99570.81;;;6.13;57.79
11912;BME280;6016;41.928;25.556;2024-01-27T01:36:59;99564.13;;;6.22;57.63
11912;BME280;6016;41.928;25.556;2024-01-27T01:39:27;99569.72;;;6.30;56.40
11912;BME280;6016;41.928;25.556;2024-01-27T01:41:54;99564.25;;;6.33;56.04
11912;BME280;6016;41.928;25.556;2024-01-27T01:44:21;99559.09;;;6.31;57.65
11912;BME280;6016;41.928;25.556;2024-01-27T01:46:48;99551.25;;;6.31;59.71
11912;BME280;6016;41.928;25.556;2024-01-27T01:49:15;99553.69;;;6.47;60.24
11912;BME280;6016;41.928;25.556;2024-01-27T01:51:43;99554.56;;;6.61;57.98
11912;BME280;6016;41.928;25.556;2024-01-27T01:54:11;99543.91;;;6.64;58.19
11912;BME280;6016;41.928;25.556;2024-01-27T01:56:39;99550.47;;;6.57;55.75
11912;BME280;6016;41.928;25.556;2024-01-27T01:59:06;99552.47;;;6.66;56.28
11912;BME280;6016;41.928;25.556;2024-01-27T02:01:33;99546.38;;;6.66;56.10
11912;BME280;6016;41.928;25.556;2024-01-27T02:04:00;99553.00;;;6.71;56.81
11912;BME280;6016;41.928;25.556;2024-01-27T02:06:27;99547.53;;;6.74;56.39
11912;BME280;6016;41.928;25.556;2024-01-27T02:08:55;99548.31;;;6.77;55.92
11912;BME280;6016;41.928;25.556;2024-01-27T02:11:23;99546.72;;;6.74;54.32
11912;BME280;6016;41.928;25.556;2024-01-27T02:13:49;99544.09;;;6.74;56.42
11912;BME280;6016;41.928;25.556;2024-01-27T02:16:16;99542.72;;;6.68;54.86
11912;BME280;6016;41.928;25.556;2024-01-27T02:18:44;99546.09;;;6.70;55.09
11912;BME280;6016;41.928;25.556;2024-01-27T02:21:11;99547.84;;;6.70;53.81
11912;BME280;6016;41.928;25.556;2024-01-27T02:23:38;99546.19;;;6.69;54.91
11912;BME280;6016;41.928;25.556;2024-01-27T02:26:06;99513.25;;;6.52;54.64
11912;BME280;6016;41.928;25.556;2024-01-27T02:28:33;99535.38;;;6.60;54.08
11912;BME280;6016;41.928;25.556;2024-01-27T02:31:01;99526.66;;;6.60;54.46
11912;BME280;6016;41.928;25.556;2024-01-27T02:33:28;99531.19;;;6.58;54.67
11912;BME280;6016;41.928;25.556;2024-01-27T02:35:55;99527.94;;;6.54;55.73
11912;BME280;6016;41.928;25.556;2024-01-27T02:38:22;99536.09;;;6.50;55.83
11912;BME280;6016;41.928;25.556;2024-01-27T02:40:49;99534.41;;;6.48;55.77
11912;BME280;6016;41.928;25.556;2024-01-27T02:43:17;99515.44;;;6.32;55.01
11912;BME280;6016;41.928;25.556;2024-01-27T02:45:44;99476.44;;;6.00;55.40
11912;BME280;6016;41.928;25.556;2024-01-27T02:48:11;99541.06;;;6.14;56.85
11912;BME280;6016;41.928;25.556;2024-01-27T02:50:38;99547.63;;;6.07;58.04
11912;BME280;6016;41.928;25.556;2024-01-27T02:53:05;99526.66;;;6.07;58.03
11912;BME280;6016;41.928;25.556;2024-01-27T02:55:32;99517.34;;;6.02;56.21
11912;BME280;6016;41.928;25.556;2024-01-27T02:57:59;99510.13;;;6.06;55.92
11912;BME280;6016;41.928;25.556;2024-01-27T03:00:27;99555.44;;;6.21;55.46
11912;BME280;6016;41.928;25.556;2024-01-27T03:02:54;99558.66;;;6.25;58.81
11912;BME280;6016;41.928;25.556;2024-01-27T03:05:23;99514.81;;;6.01;60.81
11912;BME280;6016;41.928;25.556;2024-01-27T03:07:50;99549.47;;;6.32;59.28
11912;BME280;6016;41.928;25.556;2024-01-27T03:10:18;99544.69;;;6.39;58.78
11912;BME280;6016;41.928;25.556;2024-01-27T03:12:45;99518.34;;;6.27;60.60
11912;BME280;6016;41.928;25.556;2024-01-27T03:15:12;99542.47;;;6.45;58.78
11912;BME280;6016;41.928;25.556;2024-01-27T03:17:41;99541.66;;;6.45;60.59
11912;BME280;6016;41.928;25.556;2024-01-27T03:20:09;99542.25;;;6.36;58.59
11912;BME280;6016;41.928;25.556;2024-01-27T03:22:36;99391.31;;;5.54;61.68
11912;BME280;6016;41.928;25.556;2024-01-27T03:25:03;99515.75;;;6.40;62.62
11912;BME280;6016;41.928;25.556;2024-01-27T03:27:30;99517.13;;;6.46;62.26
11912;BME280;6016;41.928;25.556;2024-01-27T03:30:00;99512.00;;;6.57;60.16
11912;BME280;6016;41.928;25.556;2024-01-27T03:32:27;99519.75;;;6.46;61.92
11912;BME280;6016;41.928;25.556;2024-01-27T03:34:55;99504.63;;;6.50;60.75
11912;BME280;6016;41.928;25.556;2024-01-27T03:37:22;99501.41;;;6.46;57.33
11912;BME280;6016;41.928;25.556;2024-01-27T03:39:49;99494.22;;;6.09;60.44
11912;BME280;6016;41.928;25.556;2024-01-27T03:42:16;99501.16;;;6.23;59.20
11912;BME280;6016;41.928;25.556;2024-01-27T03:44:43;99507.03;;;6.27;57.00
11912;BME280;6016;41.928;25.556;2024-01-27T03:47:10;99512.84;;;6.45;58.15
11912;BME280;6016;41.928;25.556;2024-01-27T03:49:38;99504.56;;;6.51;55.55
11912;BME280;6016;41.928;25.556;2024-01-27T03:52:06;99501.03;;;6.25;55.16
11912;BME280;6016;41.928;25.556;2024-01-27T03:54:33;99502.44;;;6.43;57.65
11912;BME280;6016;41.928;25.556;2024-01-27T03:57:00;99485.88;;;6.30;54.14
11912;BME280;6016;41.928;25.556;2024-01-27T03:59:27;99501.81;;;6.27;57.09
11912;BME280;6016;41.928;25.556;2024-01-27T04:01:54;99506.91;;;6.28;57.97
11912;BME280;6016;41.928;25.556;2024-01-27T04:04:21;99503.28;;;6.31;54.71
11912;BME280;6016;41.928;25.556;2024-01-27T04:06:49;99503.56;;;6.13;55.52
11912;BME280;6016;41.928;25.556;2024-01-27T04:09:17;99497.69;;;6.10;57.38
11912;BME280;6016;41.928;25.556;2024-01-27T04:11:45;99505.66;;;6.21;57.71
11912;BME280;6016;41.928;25.556;2024-01-27T04:14:12;99503.06;;;6.21;55.01
11912;BME280;6016;41.928;25.556;2024-01-27T04:16:39;99147.59;;;4.00;54.83
11912;BME280;6016;41.928;25.556;2024-01-27T04:19:06;99502.19;;;6.08;55.59
11912;BME280;6016;41.928;25.556;2024-01-27T04:21:33;99503.66;;;6.12;56.46
11912;BME280;6016;41.928;25.556;2024-01-27T04:24:00;99473.91;;;5.85;56.41
11912;BME280;6016;41.928;25.556;2024-01-27T04:26:28;99503.47;;;6.00;56.34
11912;BME280;6016;41.928;25.556;2024-01-27T04:28:55;99496.22;;;5.91;57.39
11912;BME280;6016;41.928;25.556;2024-01-27T04:31:22;99494.66;;;5.88;56.65
11912;BME280;6016;41.928;25.556;2024-01-27T04:33:49;99479.03;;;5.87;57.57
11912;BME280;6016;41.928;25.556;2024-01-27T04:36:25;99478.50;;;5.82;57.47
11912;BME280;6016;41.928;25.556;2024-01-27T04:38:52;99479.75;;;5.76;58.12
11912;BME280;6016;41.928;25.556;2024-01-27T04:41:19;99473.56;;;5.77;57.48
11912;BME280;6016;41.928;25.556;2024-01-27T04:43:47;99479.53;;;5.79;56.94
11912;BME280;6016;41.928;25.556;2024-01-27T04:46:14;99422.75;;;5.39;57.42
11912;BME280;6016;41.928;25.556;2024-01-27T04:48:41;99475.03;;;5.81;57.86
11912;BME280;6016;41.928;25.556;2024-01-27T04:51:08;99440.72;;;5.58;62.45
11912;BME280;6016;41.928;25.556;2024-01-27T04:53:35;99473.06;;;5.85;60.30
11912;BME280;6016;41.928;25.556;2024-01-27T04:56:03;99474.09;;;5.82;57.82
11912;BME280;6016;41.928;25.556;2024-01-27T04:58:33;99468.66;;;5.85;59.60
11912;BME280;6016;41.928;25.556;2024-01-27T05:01:01;99460.06;;;5.83;59.71
11912;BME280;6016;41.928;25.556;2024-01-27T05:03:28;99475.34;;;6.04;56.56
11912;BME280;6016;41.928;25.556;2024-01-27T05:05:55;99465.69;;;6.04;56.32
11912;BME280;6016;41.928;25.556;2024-01-27T05:08:22;99468.88;;;6.10;58.34
11912;BME280;6016;41.928;25.556;2024-01-27T05:10:49;99464.19;;;6.00;61.44
11912;BME280;6016;41.928;25.556;2024-01-27T05:13:16;99473.16;;;6.11;58.73
11912;BME280;6016;41.928;25.556;2024-01-27T05:15:43;99472.28;;;5.97;60.16
11912;BME280;6016;41.928;25.556;2024-01-27T05:18:12;99470.44;;;6.12;60.58
11912;BME280;6016;41.928;25.556;2024-01-27T05:20:39;99464.38;;;6.25;58.75
11912;BME280;6016;41.928;25.556;2024-01-27T05:23:06;99430.69;;;5.93;58.37
11912;BME280;6016;41.928;25.556;2024-01-27T05:25:33;99465.53;;;6.21;56.68
11912;BME280;6016;41.928;25.556;2024-01-27T05:28:00;99467.13;;;6.23;55.45
11912;BME280;6016;41.928;25.556;2024-01-27T05:30:27;99463.47;;;6.26;58.23
11912;BME280;6016;41.928;25.556;2024-01-27T05:32:54;99463.22;;;6.16;54.94
11912;BME280;6016;41.928;25.556;2024-01-27T05:35:22;99442.78;;;6.08;62.27
11912;BME280;6016;41.928;25.556;2024-01-27T05:37:49;99461.44;;;6.29;61.48
11912;BME280;6016;41.928;25.556;2024-01-27T05:40:17;99439.34;;;6.21;58.22
11912;BME280;6016;41.928;25.556;2024-01-27T05:42:44;99460.75;;;6.40;63.04
11912;BME280;6016;41.928;25.556;2024-01-27T05:45:11;99401.56;;;5.97;56.91
11912;BME280;6016;41.928;25.556;2024-01-27T05:47:38;99452.13;;;6.25;55.66
11912;BME280;6016;41.928;25.556;2024-01-27T05:50:06;99444.78;;;6.17;56.76
11912;BME280;6016;41.928;25.556;2024-01-27T05:52:35;99449.06;;;6.31;54.01
11912;BME280;6016;41.928;25.556;2024-01-27T05:55:03;99431.78;;;6.16;54.48
11912;BME280;6016;41.928;25.556;2024-01-27T05:57:32;99440.19;;;6.21;54.76
11912;BME280;6016;41.928;25.556;2024-01-27T05:59:59;99437.75;;;6.18;55.14
11912;BME280;6016;41.928;25.556;2024-01-27T06:02:26;99439.25;;;6.22;54.75
11912;BME280;6016;41.928;25.556;2024-01-27T06:04:53;99447.41;;;6.17;54.13
11912;BME280;6016;41.928;25.556;2024-01-27T06:07:20;99446.84;;;6.12;53.91
11912;BME280;6016;41.928;25.556;2024-01-27T06:09:48;99454.50;;;6.02;53.28
11912;BME280;6016;41.928;25.556;2024-01-27T06:12:15;99441.19;;;6.05;54.35
11912;BME280;6016;41.928;25.556;2024-01-27T06:14:42;99443.81;;;6.05;54.33
11912;BME280;6016;41.928;25.556;2024-01-27T06:17:09;99440.28;;;5.92;54.83
11912;BME280;6016;41.928;25.556;2024-01-27T06:19:37;99463.00;;;6.06;54.59
11912;BME280;6016;41.928;25.556;2024-01-27T06:22:04;99457.19;;;6.01;54.46
11912;BME280;6016;41.928;25.556;2024-01-27T06:24:31;99478.91;;;6.03;55.50
11912;BME280;6016;41.928;25.556;2024-01-27T06:26:59;99451.06;;;5.87;53.89
11912;BME280;6016;41.928;25.556;2024-01-27T06:29:26;99481.22;;;6.08;56.68
11912;BME280;6016;41.928;25.556;2024-01-27T06:31:54;99484.06;;;5.90;53.95
11912;BME280;6016;41.928;25.556;2024-01-27T06:34:21;99457.38;;;5.85;53.85
11912;BME280;6016;41.928;25.556;2024-01-27T06:36:48;99473.47;;;6.06;56.50
11912;BME280;6016;41.928;25.556;2024-01-27T06:39:15;99483.13;;;6.18;55.44
11912;BME280;6016;41.928;25.556;2024-01-27T06:41:42;99485.25;;;6.26;56.37
11912;BME280;6016;41.928;25.556;2024-01-27T06:44:10;99482.66;;;6.39;54.60
11912;BME280;6016;41.928;25.556;2024-01-27T06:46:37;99481.69;;;6.40;53.89
11912;BME280;6016;41.928;25.556;2024-01-27T06:49:04;99491.13;;;6.43;54.32
11912;BME280;6016;41.928;25.556;2024-01-27T06:51:31;99501.50;;;6.44;54.41
11912;BME280;6016;41.928;25.556;2024-01-27T06:53:58;99499.19;;;6.40;53.49
11912;BME280;6016;41.928;25.556;2024-01-27T06:56:25;99502.97;;;6.48;53.96
11912;BME280;6016;41.928;25.556;2024-01-27T06:58:52;99500.03;;;6.53;55.02
11912;BME280;6016;41.928;25.556;2024-01-27T07:01:21;99494.72;;;6.55;54.81
11912;BME280;6016;41.928;25.556;2024-01-27T07:03:48;99485.88;;;6.43;54.11
11912;BME280;6016;41.928;25.556;2024-01-27T07:06:15;99512.22;;;6.67;53.61
11912;BME280;6016;41.928;25.556;2024-01-27T07:08:42;99519.66;;;6.73;54.69
11912;BME280;6016;41.928;25.556;2024-01-27T07:11:08;99532.34;;;6.80;54.60
11912;BME280;6016;41.928;25.556;2024-01-27T07:13:35;99514.41;;;6.73;55.35
11912;BME280;6016;41.928;25.556;2024-01-27T07:16:04;99520.94;;;6.81;56.33
11912;BME280;6016;41.928;25.556;2024-01-27T07:18:32;99496.81;;;6.63;58.44
11912;BME280;6016;41.928;25.556;2024-01-27T07:21:00;99510.00;;;6.61;60.35
11912;BME280;6016;41.928;25.556;2024-01-27T07:23:27;99508.88;;;6.65;59.55
11912;BME280;6016;41.928;25.556;2024-01-27T07:25:54;99501.00;;;6.65;61.97
11912;BME280;6016;41.928;25.556;2024-01-27T07:28:22;99508.53;;;6.83;60.52
11912;BME280;6016;41.928;25.556;2024-01-27T07:30:49;99127.00;;;4.50;64.11
11912;BME280;6016;41.928;25.556;2024-01-27T07:33:16;99510.13;;;6.85;65.73
11912;BME280;6016;41.928;25.556;2024-01-27T07:35:45;99515.97;;;7.02;65.01
11912;BME280;6016;41.928;25.556;2024-01-27T07:38:12;99513.25;;;7.03;64.64
11912;BME280;6016;41.928;25.556;2024-01-27T07:40:39;99515.97;;;7.15;63.62
11912;BME280;6016;41.928;25.556;2024-01-27T07:43:06;99485.38;;;7.02;62.53
11912;BME280;6016;41.928;25.556;2024-01-27T07:45:33;99457.81;;;6.58;64.58
11912;BME280;6016;41.928;25.556;2024-01-27T07:48:00;99518.19;;;7.08;63.86
11912;BME280;6016;41.928;25.556;2024-01-27T07:50:27;99454.44;;;6.69;64.06
11912;BME280;6016;41.928;25.556;2024-01-27T07:52:55;99522.59;;;7.08;64.98
11912;BME280;6016;41.928;25.556;2024-01-27T07:55:22;99502.47;;;6.95;66.34
11912;BME280;6016;41.928;25.556;2024-01-27T07:57:49;99510.72;;;7.15;66.98
11912;BME280;6016;41.928;25.556;2024-01-27T08:00:17;99505.91;;;7.09;67.33
11912;BME280;6016;41.928;25.556;2024-01-27T08:02:44;99498.97;;;7.21;69.25
11912;BME280;6016;41.928;25.556;2024-01-27T08:05:11;99502.72;;;7.29;68.72
11912;BME280;6016;41.928;25.556;2024-01-27T08:07:38;99492.25;;;7.16;69.38
11912;BME280;6016;41.928;25.556;2024-01-27T08:10:07;99480.81;;;7.17;68.27
11912;BME280;6016;41.928;25.556;2024-01-27T08:12:36;99488.66;;;7.30;69.06
11912;BME280;6016;41.928;25.556;2024-01-27T08:15:05;99493.38;;;7.25;68.80
11912;BME280;6016;41.928;25.556;2024-01-27T08:17:32;99485.81;;;7.34;70.03
11912;BME280;6016;41.928;25.556;2024-01-27T08:19:59;99490.25;;;7.20;70.87
11912;BME280;6016;41.928;25.556;2024-01-27T08:22:26;99481.56;;;7.07;70.90
11912;BME280;6016;41.928;25.556;2024-01-27T08:24:53;99486.72;;;6.82;70.82
11912;BME280;6016;41.928;25.556;2024-01-27T08:27:21;99465.78;;;6.69;70.70
11912;BME280;6016;41.928;25.556;2024-01-27T08:29:48;99439.56;;;6.43;72.38
11912;BME280;6016;41.928;25.556;2024-01-27T08:32:15;99474.03;;;6.63;71.69
11912;BME280;6016;41.928;25.556;2024-01-27T08:34:42;99463.56;;;6.50;73.14
11912;BME280;6016;41.928;25.556;2024-01-27T08:37:15;99465.34;;;6.63;72.72
11912;BME280;6016;41.928;25.556;2024-01-27T08:39:42;99445.22;;;6.37;74.09
11912;BME280;6016;41.928;25.556;2024-01-27T08:42:09;99439.22;;;6.09;75.30
11912;BME280;6016;41.928;25.556;2024-01-27T08:44:37;99435.38;;;6.28;75.31
11912;BME280;6016;41.928;25.556;2024-01-27T08:47:05;99426.56;;;6.42;74.13
11912;BME280;6016;41.928;25.556;2024-01-27T08:49:32;99426.16;;;6.48;75.11
11912;BME280;6016;41.928;25.556;2024-01-27T08:51:59;99421.13;;;6.58;74.50
11912;BME280;6016;41.928;25.556;2024-01-27T08:54:26;99327.41;;;5.97;74.35
11912;BME280;6016;41.928;25.556;2024-01-27T08:56:53;99235.47;;;5.37;75.27
11912;BME280;6016;41.928;25.556;2024-01-27T08:59:20;99406.03;;;6.36;75.41
11912;BME280;6016;41.928;25.556;2024-01-27T09:01:48;99396.50;;;6.22;77.65
11912;BME280;6016;41.928;25.556;2024-01-27T09:04:16;99400.66;;;6.37;77.11
11912;BME280;6016;41.928;25.556;2024-01-27T09:06:43;99404.34;;;6.47;77.23
11912;BME280;6016;41.928;25.556;2024-01-27T09:09:10;99386.75;;;6.37;77.30
11912;BME280;6016;41.928;25.556;2024-01-27T09:11:37;99406.97;;;6.47;78.26
11912;BME280;6016;41.928;25.556;2024-01-27T09:14:04;99395.88;;;6.31;77.67
11912;BME280;6016;41.928;25.556;2024-01-27T09:16:32;99401.53;;;6.38;78.65
11912;BME280;6016;41.928;25.556;2024-01-27T09:19:01;99391.34;;;6.33;79.77
11912;BME280;6016;41.928;25.556;2024-01-27T09:21:28;99419.72;;;6.78;79.32
11912;BME280;6016;41.928;25.556;2024-01-27T09:23:56;99415.09;;;6.82;77.43
11912;BME280;6016;41.928;25.556;2024-01-27T09:26:23;99423.69;;;6.97;77.16
11912;BME280;6016;41.928;25.556;2024-01-27T09:28:50;99425.31;;;7.11;76.88
11912;BME280;6016;41.928;25.556;2024-01-27T09:31:20;99414.53;;;7.02;76.52
11912;BME280;6016;41.928;25.556;2024-01-27T09:33:49;99419.66;;;7.04;75.64
11912;BME280;6016;41.928;25.556;2024-01-27T09:36:19;99439.06;;;7.14;75.97
11912;BME280;6016;41.928;25.556;2024-01-27T09:38:46;99433.25;;;7.22;75.92
11912;BME280;6016;41.928;25.556;2024-01-27T09:41:14;99442.56;;;7.26;75.10
11912;BME280;6016;41.928;25.556;2024-01-27T09:43:42;99423.44;;;7.37;74.73
11912;BME280;6016;41.928;25.556;2024-01-27T09:46:10;99432.16;;;7.38;74.67
11912;BME280;6016;41.928;25.556;2024-01-27T09:48:37;99413.03;;;7.11;74.60
11912;BME280;6016;41.928;25.556;2024-01-27T09:51:06;99421.88;;;7.35;74.86
11912;BME280;6016;41.928;25.556;2024-01-27T09:53:35;99432.28;;;7.36;73.87
11912;BME280;6016;41.928;25.556;2024-01-27T09:56:03;99408.44;;;7.39;73.96
11912;BME280;6016;41.928;25.556;2024-01-27T09:58:31;99414.06;;;7.46;73.35
11912;BME280;6016;41.928;25.556;2024-01-27T10:00:59;99419.97;;;7.37;74.10
11912;BME280;6016;41.928;25.556;2024-01-27T10:03:28;99420.88;;;7.24;74.67
11912;BME280;6016;41.928;25.556;2024-01-27T10:05:56;99419.09;;;7.25;74.92
11912;BME280;6016;41.928;25.556;2024-01-27T10:08:24;99388.66;;;7.22;74.95
11912;BME280;6016;41.928;25.556;2024-01-27T10:10:54;99417.16;;;7.40;74.71
11912;BME280;6016;41.928;25.556;2024-01-27T10:13:22;99411.22;;;7.49;73.48
11912;BME280;6016;41.928;25.556;2024-01-27T10:16:02;99373.69;;;7.36;74.40
11912;BME280;6016;41.928;25.556;2024-01-27T10:18:29;99377.59;;;7.30;74.15
11912;BME280;6016;41.928;25.556;2024-01-27T10:20:56;99388.09;;;7.54;73.88
11912;BME280;6016;41.928;25.556;2024-01-27T10:23:23;99391.94;;;7.62;74.95
11912;BME280;6016;41.928;25.556;2024-01-27T10:25:53;99383.28;;;7.72;74.15
11912;BME280;6016;41.928;25.556;2024-01-27T10:28:20;99355.91;;;7.64;74.87
11912;BME280;6016;41.928;25.556;2024-01-27T10:30:48;99390.72;;;7.90;74.11
11912;BME280;6016;41.928;25.556;2024-01-27T10:33:15;99374.72;;;7.93;74.50
11912;BME280;6016;41.928;25.556;2024-01-27T10:35:43;99344.25;;;7.68;74.40
11912;BME280;6016;41.928;25.556;2024-01-27T10:38:10;99362.78;;;7.89;74.49
11912;BME280;6016;41.928;25.556;2024-01-27T10:40:37;99321.34;;;7.70;73.62
11912;BME280;6016;41.928;25.556;2024-01-27T10:43:06;99326.00;;;7.78;73.64
11912;BME280;6016;41.928;25.556;2024-01-27T10:45:37;99327.97;;;7.98;72.95
11912;BME280;6016;41.928;25.556;2024-01-27T10:48:06;99332.63;;;8.06;73.45
11912;BME280;6016;41.928;25.556;2024-01-27T10:50:35;99317.22;;;8.13;71.51
11912;BME280;6016;41.928;25.556;2024-01-27T10:53:04;99319.34;;;8.19;70.57
11912;BME280;6016;41.928;25.556;2024-01-27T10:55:33;99328.44;;;8.38;69.19
11912;BME280;6016;41.928;25.556;2024-01-27T10:58:02;99319.13;;;8.45;68.13
11912;BME280;6016;41.928;25.556;2024-01-27T11:00:31;99344.81;;;8.76;68.93
11912;BME280;6016;41.928;25.556;2024-01-27T11:03:02;99367.41;;;8.90;68.63
11912;BME280;6016;41.928;25.556;2024-01-27T11:05:31;99347.66;;;8.95;67.91
11912;BME280;6016;41.928;25.556;2024-01-27T11:08:02;99186.22;;;7.85;67.39
11912;BME280;6016;41.928;25.556;2024-01-27T11:10:31;99343.81;;;8.99;66.59
11912;BME280;6016;41.928;25.556;2024-01-27T11:13:02;99345.00;;;9.07;67.35
11912;BME280;6016;41.928;25.556;2024-01-27T11:15:32;99347.75;;;9.05;66.92
11912;BME280;6016;41.928;25.556;2024-01-27T11:17:59;99350.72;;;9.12;67.49
11912;BME280;6016;41.928;25.556;2024-01-27T11:20:27;99330.88;;;9.08;65.43
11912;BME280;6016;41.928;25.556;2024-01-27T11:23:08;99265.84;;;8.98;62.76
11912;BME280;6016;41.928;25.556;2024-01-27T11:25:35;99326.00;;;9.57;61.92
11912;BME280;6016;41.928;25.556;2024-01-27T11:28:10;99335.47;;;9.81;61.48
11912;BME280;6016;41.928;25.556;2024-01-27T11:30:40;99351.38;;;9.79;62.04
11912;BME280;6016;41.928;25.556;2024-01-27T11:33:11;99312.41;;;9.52;57.32
11912;BME280;6016;41.928;25.556;2024-01-27T11:35:38;99250.28;;;9.07;57.67
11912;BME280;6016;41.928;25.556;2024-01-27T11:38:05;99346.97;;;9.59;56.39
11912;BME280;6016;41.928;25.556;2024-01-27T11:40:32;99317.19;;;9.25;56.13
11912;BME280;6016;41.928;25.556;2024-01-27T11:43:01;99335.56;;;9.58;57.61
11912;BME280;6016;41.928;25.556;2024-01-27T11:45:28;99334.50;;;9.61;58.37
11912;BME280;6016;41.928;25.556;2024-01-27T11:47:57;99331.88;;;9.61;57.96
11912;BME280;6016;41.928;25.556;2024-01-27T11:50:24;99343.03;;;9.53;57.26
11912;BME280;6016;41.928;25.556;2024-01-27T11:52:51;99331.34;;;9.67;57.96
11912;BME280;6016;41.928;25.556;2024-01-27T11:55:18;99335.13;;;9.74;58.22
11912;BME280;6016;41.928;25.556;2024-01-27T11:57:45;99306.66;;;9.47;57.92
11912;BME280;6016;41.928;25.556;2024-01-27T12:00:13;99333.22;;;9.76;56.68
11912;BME280;6016;41.928;25.556;2024-01-27T12:02:40;99351.31;;;9.69;56.45
11912;BME280;6016;41.928;25.556;2024-01-27T12:05:09;99342.59;;;9.69;57.01
11912;BME280;6016;41.928;25.556;2024-01-27T12:07:36;99351.16;;;9.61;58.08
11912;BME280;6016;41.928;25.556;2024-01-27T12:10:04;99215.25;;;8.73;57.30
11912;BME280;6016;41.928;25.556;2024-01-27T12:12:32;99353.78;;;9.61;58.05
11912;BME280;6016;41.928;25.556;2024-01-27T12:14:59;99295.16;;;9.26;57.41
11912;BME280;6016;41.928;25.556;2024-01-27T12:17:27;99360.06;;;9.70;57.99
11912;BME280;6016;41.928;25.556;2024-01-27T12:19:55;99368.94;;;9.69;58.12
11912;BME280;6016;41.928;25.556;2024-01-27T12:22:24;99371.09;;;9.64;57.33
11912;BME280;6016;41.928;25.556;2024-01-27T12:24:52;99379.00;;;9.64;57.90
11912;BME280;6016;41.928;25.556;2024-01-27T12:27:20;99369.97;;;9.56;57.82
11912;BME280;6016;41.928;25.556;2024-01-27T12:29:48;99283.78;;;9.05;57.79
11912;BME280;6016;41.928;25.556;2024-01-27T12:32:15;99312.28;;;9.21;58.34
11912;BME280;6016;41.928;25.556;2024-01-27T12:34:42;99370.34;;;9.52;58.27
11912;BME280;6016;41.928;25.556;2024-01-27T12:37:11;99378.09;;;9.53;58.86
11912;BME280;6016;41.928;25.556;2024-01-27T12:39:42;99264.47;;;8.83;59.78
11912;BME280;6016;41.928;25.556;2024-01-27T12:42:10;99371.66;;;9.46;59.08
11912;BME280;6016;41.928;25.556;2024-01-27T12:44:37;99374.56;;;9.43;59.31
11912;BME280;6016;41.928;25.556;2024-01-27T12:47:05;99370.34;;;9.52;59.31
11912;BME280;6016;41.928;25.556;2024-01-27T12:49:32;99347.47;;;9.20;59.17
11912;BME280;6016;41.928;25.556;2024-01-27T12:51:59;99360.75;;;9.18;59.83
11912;BME280;6016;41.928;25.556;2024-01-27T12:54:26;99378.81;;;9.23;59.48
11912;BME280;6016;41.928;25.556;2024-01-27T12:56:55;99393.72;;;9.34;59.76
11912;BME280;6016;41.928;25.556;2024-01-27T12:59:22;99405.84;;;9.25;59.55
11912;BME280;6016;41.928;25.556;2024-01-27T13:01:50;99410.84;;;9.28;60.67
11912;BME280;6016;41.928;25.556;2024-01-27T13:04:17;99405.34;;;9.31;60.84
11912;BME280;6016;41.928;25.556;2024-01-27T13:06:44;99369.41;;;8.97;60.81
11912;BME280;6016;41.928;25.556;2024-01-27T13:09:11;99418.03;;;9.26;60.66
11912;BME280;6016;41.928;25.556;2024-01-27T13:11:39;99420.81;;;9.13;60.63